sensor_id;sensor_type;location;lat;lon;timestamp;P1;durP1;ratioP1;P2;durP2;ratioP2
22711;SDS011;11523;50.390;8.072;2022-10-18T04:00:22;4.75;;;4.30;;
22711;SDS011;11523;50.390;8.072;2022-10-18T04:02:54;5.13;;;4.57;;
22711;SDS011;11523;50.390;8.072;2022-10-18T04:05:20;4.82;;;4.40;;
22711;SDS011;11523;50.390;8.072;2022-10-18T04:07:48;4.95;;;4.40;;
22711;SDS011;11523;50.390;8.072;2022-10-18T04:10:14;5.13;;;4.30;;
22711;SDS011;11523;50.390;8.072;2022-10-18T04:12:40;4.93;;;4.13;;
22711;SDS011;11523;50.390;8.072;2022-10-18T04:15:06;4.28;;;3.88;;
22711;SDS011;11523;50.390;8.072;2022-10-18T04:17:32;4.65;;;3.90;;
22711;SDS011;11523;50.390;8.072;2022-10-18T04:19:58;4.95;;;4.53;;
22711;SDS011;11523;50.390;8.072;2022-10-18T04:22:24;5.32;;;3.95;;
22711;SDS011;11523;50.390;8.072;2022-10-18T04:24:50;4.05;;;3.75;;
22711;SDS011;11523;50.390;8.072;2022-10-18T04:27:17;4.85;;;3.97;;
22711;SDS011;11523;50.390;8.072;2022-10-18T04:29:43;4.70;;;4.07;;
22711;SDS011;11523;50.390;8.072;2022-10-18T04:32:09;5.43;;;4.43;;
22711;SDS011;11523;50.390;8.072;2022-10-18T04:34:35;5.32;;;4.28;;
22711;SDS011;11523;50.390;8.072;2022-10-18T04:37:01;7.15;;;4.57;;
22711;SDS011;11523;50.390;8.072;2022-10-18T04:39:27;4.40;;;4.00;;
22711;SDS011;11523;50.390;8.072;2022-10-18T04:41:52;4.93;;;4.45;;
22711;SDS011;11523;50.390;8.072;2022-10-18T04:44:18;4.97;;;4.43;;
22711;SDS011;11523;50.390;8.072;2022-10-18T04:46:44;4.78;;;4.32;;
22711;SDS011;11523;50.390;8.072;2022-10-18T04:49:10;10.98;;;4.85;;
22711;SDS011;11523;50.390;8.072;2022-10-18T04:51:36;5.50;;;5.00;;
22711;SDS011;11523;50.390;8.072;2022-10-18T04:54:02;5.28;;;4.47;;
22711;SDS011;11523;50.390;8.072;2022-10-18T04:56:28;7.03;;;4.85;;
22711;SDS011;11523;50.390;8.072;2022-10-18T04:58:54;7.07;;;4.60;;
22711;SDS011;11523;50.390;8.072;2022-10-18T05:01:20;5.15;;;4.68;;
22711;SDS011;11523;50.390;8.072;2022-10-18T05:03:50;7.05;;;5.00;;
22711;SDS011;11523;50.390;8.072;2022-10-18T05:06:16;5.80;;;5.03;;
22711;SDS011;11523;50.390;8.072;2022-10-18T05:08:42;5.78;;;5.05;;
22711;SDS011;11523;50.390;8.072;2022-10-18T05:11:08;4.97;;;4.50;;
22711;SDS011;11523;50.390;8.072;2022-10-18T05:13:33;5.25;;;4.75;;
22711;SDS011;11523;50.390;8.072;2022-10-18T05:15:59;6.78;;;4.95;;
22711;SDS011;11523;50.390;8.072;2022-10-18T05:18:26;5.63;;;4.72;;
22711;SDS011;11523;50.390;8.072;2022-10-18T05:20:52;6.35;;;5.05;;
22711;SDS011;11523;50.390;8.072;2022-10-18T05:23:18;6.47;;;4.93;;
22711;SDS011;11523;50.390;8.072;2022-10-18T05:25:44;5.07;;;4.57;;
22711;SDS011;11523;50.390;8.072;2022-10-18T05:28:10;7.45;;;4.82;;
22711;SDS011;11523;50.390;8.072;2022-10-18T05:30:36;5.60;;;4.95;;
22711;SDS011;11523;50.390;8.072;2022-10-18T05:33:03;6.45;;;5.38;;
22711;SDS011;11523;50.390;8.072;2022-10-18T05:35:28;7.03;;;4.53;;
22711;SDS011;11523;50.390;8.072;2022-10-18T05:37:54;6.82;;;5.05;;
22711;SDS011;11523;50.390;8.072;2022-10-18T05:40:20;7.15;;;4.90;;
22711;SDS011;11523;50.390;8.072;2022-10-18T05:42:46;8.07;;;5.60;;
22711;SDS011;11523;50.390;8.072;2022-10-18T05:45:12;5.78;;;4.82;;
22711;SDS011;11523;50.390;8.072;2022-10-18T05:47:38;6.30;;;5.40;;
22711;SDS011;11523;50.390;8.072;2022-10-18T05:50:04;6.38;;;5.28;;
22711;SDS011;11523;50.390;8.072;2022-10-18T05:52:30;7.93;;;4.85;;
22711;SDS011;11523;50.390;8.072;2022-10-18T05:54:56;7.55;;;5.05;;
22711;SDS011;11523;50.390;8.072;2022-10-18T05:57:22;6.28;;;5.22;;
22711;SDS011;11523;50.390;8.072;2022-10-18T05:59:48;6.80;;;5.22;;
22711;SDS011;11523;50.390;8.072;2022-10-18T06:02:14;8.43;;;5.75;;
22711;SDS011;11523;50.390;8.072;2022-10-18T06:04:39;5.63;;;5.13;;
22711;SDS011;11523;50.390;8.072;2022-10-18T06:07:09;7.43;;;5.93;;
22711;SDS011;11523;50.390;8.072;2022-10-18T06:09:35;6.20;;;5.18;;
22711;SDS011;11523;50.390;8.072;2022-10-18T06:12:02;7.70;;;6.20;;
22711;SDS011;11523;50.390;8.072;2022-10-18T06:14:28;6.75;;;5.75;;
22711;SDS011;11523;50.390;8.072;2022-10-18T06:16:54;6.57;;;5.32;;
22711;SDS011;11523;50.390;8.072;2022-10-18T06:19:21;7.00;;;5.65;;
22711;SDS011;11523;50.390;8.072;2022-10-18T06:21:47;6.80;;;5.45;;
22711;SDS011;11523;50.390;8.072;2022-10-18T06:24:13;7.75;;;5.80;;
22711;SDS011;11523;50.390;8.072;2022-10-18T06:26:39;7.18;;;5.70;;
22711;SDS011;11523;50.390;8.072;2022-10-18T06:29:04;10.63;;;6.07;;
22711;SDS011;11523;50.390;8.072;2022-10-18T06:31:31;9.82;;;6.22;;
22711;SDS011;11523;50.390;8.072;2022-10-18T06:33:57;7.13;;;5.68;;
22711;SDS011;11523;50.390;8.072;2022-10-18T06:36:23;9.00;;;6.20;;
22711;SDS011;11523;50.390;8.072;2022-10-18T06:38:49;9.23;;;5.88;;
22711;SDS011;11523;50.390;8.072;2022-10-18T06:41:16;8.20;;;5.55;;
22711;SDS011;11523;50.390;8.072;2022-10-18T06:43:46;8.13;;;5.85;;
22711;SDS011;11523;50.390;8.072;2022-10-18T06:46:12;10.48;;;5.68;;
22711;SDS011;11523;50.390;8.072;2022-10-18T06:48:38;8.95;;;5.82;;
22711;SDS011;11523;50.390;8.072;2022-10-18T06:51:04;9.07;;;5.60;;
22711;SDS011;11523;50.390;8.072;2022-10-18T06:53:31;6.25;;;5.30;;
22711;SDS011;11523;50.390;8.072;2022-10-18T06:56:02;11.75;;;5.53;;
22711;SDS011;11523;50.390;8.072;2022-10-18T06:58:29;9.82;;;5.85;;
22711;SDS011;11523;50.390;8.072;2022-10-18T07:00:55;9.93;;;5.50;;
22711;SDS011;11523;50.390;8.072;2022-10-18T07:03:21;9.00;;;5.70;;
22711;SDS011;11523;50.390;8.072;2022-10-18T07:05:48;8.32;;;5.57;;
22711;SDS011;11523;50.390;8.072;2022-10-18T07:08:14;7.72;;;6.22;;
22711;SDS011;11523;50.390;8.072;2022-10-18T07:10:40;8.60;;;5.60;;
22711;SDS011;11523;50.390;8.072;2022-10-18T07:13:06;17.13;;;5.65;;
22711;SDS011;11523;50.390;8.072;2022-10-18T07:15:32;7.45;;;5.85;;
22711;SDS011;11523;50.390;8.072;2022-10-18T07:17:58;10.23;;;6.18;;
22711;SDS011;11523;50.390;8.072;2022-10-18T07:20:24;6.35;;;5.30;;
22711;SDS011;11523;50.390;8.072;2022-10-18T07:22:54;10.57;;;6.70;;
22711;SDS011;11523;50.390;8.072;2022-10-18T07:25:21;8.40;;;6.78;;
22711;SDS011;11523;50.390;8.072;2022-10-18T07:27:46;47.22;;;24.75;;
22711;SDS011;11523;50.390;8.072;2022-10-18T07:30:12;39.22;;;18.30;;
22711;SDS011;11523;50.390;8.072;2022-10-18T07:32:38;15.68;;;9.35;;
22711;SDS011;11523;50.390;8.072;2022-10-18T07:35:04;16.38;;;9.60;;
22711;SDS011;11523;50.390;8.072;2022-10-18T07:37:30;17.55;;;10.23;;
22711;SDS011;11523;50.390;8.072;2022-10-18T07:39:56;23.13;;;12.52;;
22711;SDS011;11523;50.390;8.072;2022-10-18T07:42:22;25.83;;;17.38;;
22711;SDS011;11523;50.390;8.072;2022-10-18T07:44:48;18.55;;;13.80;;
22711;SDS011;11523;50.390;8.072;2022-10-18T07:47:14;21.73;;;12.73;;
22711;SDS011;11523;50.390;8.072;2022-10-18T07:49:40;25.98;;;15.35;;
22711;SDS011;11523;50.390;8.072;2022-10-18T07:52:07;23.33;;;15.27;;
22711;SDS011;11523;50.390;8.072;2022-10-18T07:54:33;35.90;;;21.00;;
22711;SDS011;11523;50.390;8.072;2022-10-18T07:56:59;50.65;;;27.50;;
22711;SDS011;11523;50.390;8.072;2022-10-18T07:59:25;29.48;;;15.82;;
22711;SDS011;11523;50.390;8.072;2022-10-18T08:01:50;14.95;;;11.80;;
22711;SDS011;11523;50.390;8.072;2022-10-18T08:04:16;14.82;;;10.27;;
22711;SDS011;11523;50.390;8.072;2022-10-18T08:06:42;16.55;;;10.85;;
22711;SDS011;11523;50.390;8.072;2022-10-18T08:09:08;16.48;;;10.93;;
22711;SDS011;11523;50.390;8.072;2022-10-18T08:11:34;15.63;;;10.52;;
22711;SDS011;11523;50.390;8.072;2022-10-18T08:14:00;23.17;;;15.20;;
22711;SDS011;11523;50.390;8.072;2022-10-18T08:16:27;27.38;;;16.30;;
22711;SDS011;11523;50.390;8.072;2022-10-18T08:18:53;26.50;;;16.50;;
22711;SDS011;11523;50.390;8.072;2022-10-18T08:21:21;25.73;;;16.45;;
22711;SDS011;11523;50.390;8.072;2022-10-18T08:23:47;19.92;;;13.85;;
22711;SDS011;11523;50.390;8.072;2022-10-18T08:26:15;15.27;;;11.30;;
22711;SDS011;11523;50.390;8.072;2022-10-18T08:28:41;13.70;;;10.43;;
22711;SDS011;11523;50.390;8.072;2022-10-18T08:31:09;14.20;;;9.63;;
22711;SDS011;11523;50.390;8.072;2022-10-18T08:33:36;13.95;;;9.40;;
22711;SDS011;11523;50.390;8.072;2022-10-18T08:36:03;13.88;;;9.25;;
22711;SDS011;11523;50.390;8.072;2022-10-18T08:38:30;13.95;;;8.27;;
22711;SDS011;11523;50.390;8.072;2022-10-18T08:41:00;12.45;;;8.90;;
22711;SDS011;11523;50.390;8.072;2022-10-18T08:43:30;9.30;;;7.43;;
22711;SDS011;11523;50.390;8.072;2022-10-18T08:45:58;8.52;;;6.82;;
22711;SDS011;11523;50.390;8.072;2022-10-18T08:48:29;9.63;;;8.13;;
22711;SDS011;11523;50.390;8.072;2022-10-18T08:50:57;13.15;;;8.80;;
22711;SDS011;11523;50.390;8.072;2022-10-18T08:53:25;11.25;;;8.38;;
22711;SDS011;11523;50.390;8.072;2022-10-18T08:56:09;10.38;;;6.82;;
22711;SDS011;11523;50.390;8.072;2022-10-18T08:58:38;8.30;;;6.38;;
22711;SDS011;11523;50.390;8.072;2022-10-18T09:01:50;8.23;;;6.25;;
22711;SDS011;11523;50.390;8.072;2022-10-18T09:12:06;6.35;;;5.75;;
22711;SDS011;11523;50.390;8.072;2022-10-18T09:14:53;6.40;;;5.75;;
22711;SDS011;11523;50.390;8.072;2022-10-18T09:22:31;6.70;;;5.82;;
22711;SDS011;11523;50.390;8.072;2022-10-18T09:25:20;7.22;;;5.22;;
22711;SDS011;11523;50.390;8.072;2022-10-18T09:28:03;6.85;;;4.53;;
22711;SDS011;11523;50.390;8.072;2022-10-18T09:33:38;5.97;;;4.13;;
22711;SDS011;11523;50.390;8.072;2022-10-18T09:36:07;6.50;;;3.80;;
22711;SDS011;11523;50.390;8.072;2022-10-18T09:38:39;4.30;;;3.85;;
22711;SDS011;11523;50.390;8.072;2022-10-18T09:43:54;5.85;;;3.92;;
22711;SDS011;11523;50.390;8.072;2022-10-18T09:46:22;5.53;;;3.78;;
22711;SDS011;11523;50.390;8.072;2022-10-18T09:48:52;4.75;;;3.50;;
22711;SDS011;11523;50.390;8.072;2022-10-18T09:51:22;3.42;;;3.13;;
22711;SDS011;11523;50.390;8.072;2022-10-18T09:56:26;5.43;;;3.88;;
22711;SDS011;11523;50.390;8.072;2022-10-18T09:58:54;6.30;;;4.78;;
22711;SDS011;11523;50.390;8.072;2022-10-18T10:01:21;5.60;;;4.30;;
22711;SDS011;11523;50.390;8.072;2022-10-18T10:03:54;5.72;;;4.70;;
22711;SDS011;11523;50.390;8.072;2022-10-18T10:06:22;5.40;;;4.90;;
22711;SDS011;11523;50.390;8.072;2022-10-18T10:08:52;8.85;;;5.60;;
22711;SDS011;11523;50.390;8.072;2022-10-18T10:11:25;7.13;;;6.00;;
22711;SDS011;11523;50.390;8.072;2022-10-18T10:13:54;7.63;;;5.25;;
22711;SDS011;11523;50.390;8.072;2022-10-18T10:16:21;5.30;;;4.80;;
22711;SDS011;11523;50.390;8.072;2022-10-18T10:18:51;6.82;;;5.05;;
22711;SDS011;11523;50.390;8.072;2022-10-18T10:21:18;4.85;;;3.72;;
22711;SDS011;11523;50.390;8.072;2022-10-18T10:23:45;4.50;;;3.30;;
22711;SDS011;11523;50.390;8.072;2022-10-18T10:28:53;6.15;;;3.20;;
22711;SDS011;11523;50.390;8.072;2022-10-18T10:34:04;4.20;;;3.33;;
22711;SDS011;11523;50.390;8.072;2022-10-18T10:36:31;3.67;;;2.75;;
22711;SDS011;11523;50.390;8.072;2022-10-18T10:39:17;3.75;;;2.78;;
22711;SDS011;11523;50.390;8.072;2022-10-18T10:41:56;4.30;;;2.88;;
22711;SDS011;11523;50.390;8.072;2022-10-18T10:44:27;4.65;;;2.78;;
22711;SDS011;11523;50.390;8.072;2022-10-18T10:46:53;4.32;;;2.97;;
22711;SDS011;11523;50.390;8.072;2022-10-18T10:49:20;3.45;;;2.70;;
22711;SDS011;11523;50.390;8.072;2022-10-18T10:52:21;5.32;;;2.60;;
22711;SDS011;11523;50.390;8.072;2022-10-18T10:54:39;3.15;;;2.60;;
22711;SDS011;11523;50.390;8.072;2022-10-18T10:59:42;4.55;;;2.50;;
22711;SDS011;11523;50.390;8.072;2022-10-18T11:04:46;3.95;;;2.50;;
22711;SDS011;11523;50.390;8.072;2022-10-18T11:07:26;4.60;;;2.70;;
22711;SDS011;11523;50.390;8.072;2022-10-18T11:12:42;2.60;;;2.10;;
22711;SDS011;11523;50.390;8.072;2022-10-18T11:17:41;2.72;;;1.92;;
22711;SDS011;11523;50.390;8.072;2022-10-18T11:25:17;3.30;;;1.70;;
22711;SDS011;11523;50.390;8.072;2022-10-18T11:33:09;4.60;;;1.30;;
22711;SDS011;11523;50.390;8.072;2022-10-18T11:35:44;4.05;;;1.50;;
22711;SDS011;11523;50.390;8.072;2022-10-18T11:40:44;4.30;;;1.42;;
22711;SDS011;11523;50.390;8.072;2022-10-18T11:43:18;3.72;;;1.42;;
22711;SDS011;11523;50.390;8.072;2022-10-18T11:45:59;2.22;;;1.40;;
22711;SDS011;11523;50.390;8.072;2022-10-18T11:56:13;2.72;;;1.50;;
22711;SDS011;11523;50.390;8.072;2022-10-18T11:58:57;3.10;;;1.50;;
22711;SDS011;11523;50.390;8.072;2022-10-18T12:01:41;5.50;;;1.42;;
22711;SDS011;11523;50.390;8.072;2022-10-18T12:04:13;2.78;;;1.58;;
22711;SDS011;11523;50.390;8.072;2022-10-18T12:06:42;2.78;;;1.70;;
22711;SDS011;11523;50.390;8.072;2022-10-18T12:11:51;1.63;;;1.52;;
22711;SDS011;11523;50.390;8.072;2022-10-18T12:14:23;3.13;;;1.50;;
22711;SDS011;11523;50.390;8.072;2022-10-18T12:16:50;1.50;;;1.40;;
22711;SDS011;11523;50.390;8.072;2022-10-18T12:19:17;2.35;;;1.40;;
22711;SDS011;11523;50.390;8.072;2022-10-18T12:21:44;3.90;;;1.27;;
22711;SDS011;11523;50.390;8.072;2022-10-18T12:24:11;2.45;;;1.60;;
22711;SDS011;11523;50.390;8.072;2022-10-18T12:26:40;3.38;;;1.80;;
22711;SDS011;11523;50.390;8.072;2022-10-18T12:31:51;3.38;;;1.73;;
22711;SDS011;11523;50.390;8.072;2022-10-18T12:39:21;3.60;;;1.60;;
22711;SDS011;11523;50.390;8.072;2022-10-18T12:41:49;1.63;;;1.52;;
22711;SDS011;11523;50.390;8.072;2022-10-18T12:44:38;2.72;;;1.77;;
22711;SDS011;11523;50.390;8.072;2022-10-18T12:47:04;2.85;;;1.58;;
22711;SDS011;11523;50.390;8.072;2022-10-18T12:49:31;2.45;;;1.65;;
22711;SDS011;11523;50.390;8.072;2022-10-18T12:51:59;2.10;;;1.48;;
22711;SDS011;11523;50.390;8.072;2022-10-18T12:54:36;1.75;;;1.58;;
22711;SDS011;11523;50.390;8.072;2022-10-18T12:57:03;1.58;;;1.48;;
22711;SDS011;11523;50.390;8.072;2022-10-18T13:04:32;4.65;;;2.83;;
22711;SDS011;11523;50.390;8.072;2022-10-18T13:11:51;2.00;;;1.77;;
22711;SDS011;11523;50.390;8.072;2022-10-18T13:20:01;1.40;;;1.30;;
22711;SDS011;11523;50.390;8.072;2022-10-18T13:22:10;2.97;;;1.48;;
22711;SDS011;11523;50.390;8.072;2022-10-18T13:27:35;2.45;;;1.40;;
22711;SDS011;11523;50.390;8.072;2022-10-18T13:30:16;3.63;;;1.25;;
22711;SDS011;11523;50.390;8.072;2022-10-18T13:35:40;3.92;;;1.85;;
22711;SDS011;11523;50.390;8.072;2022-10-18T13:40:59;2.58;;;1.70;;
22711;SDS011;11523;50.390;8.072;2022-10-18T13:46:10;1.50;;;1.40;;
22711;SDS011;11523;50.390;8.072;2022-10-18T13:53:39;2.00;;;1.52;;
22711;SDS011;11523;50.390;8.072;2022-10-18T13:56:12;2.65;;;1.63;;
22711;SDS011;11523;50.390;8.072;2022-10-18T14:01:34;4.25;;;2.10;;
22711;SDS011;11523;50.390;8.072;2022-10-18T14:04:33;1.65;;;1.55;;
22711;SDS011;11523;50.390;8.072;2022-10-18T14:07:04;2.83;;;1.60;;
22711;SDS011;11523;50.390;8.072;2022-10-18T14:09:34;4.40;;;2.17;;
22711;SDS011;11523;50.390;8.072;2022-10-18T14:12:24;2.75;;;1.70;;
22711;SDS011;11523;50.390;8.072;2022-10-18T14:14:50;1.90;;;1.80;;
22711;SDS011;11523;50.390;8.072;2022-10-18T14:19:45;2.03;;;1.90;;
22711;SDS011;11523;50.390;8.072;2022-10-18T14:22:17;4.85;;;1.98;;
22711;SDS011;11523;50.390;8.072;2022-10-18T14:24:45;3.45;;;2.08;;
22711;SDS011;11523;50.390;8.072;2022-10-18T14:27:20;4.43;;;2.30;;
22711;SDS011;11523;50.390;8.072;2022-10-18T14:29:47;3.38;;;2.25;;
22711;SDS011;11523;50.390;8.072;2022-10-18T14:32:26;3.20;;;2.28;;
22711;SDS011;11523;50.390;8.072;2022-10-18T14:34:53;6.43;;;3.30;;
22711;SDS011;11523;50.390;8.072;2022-10-18T14:37:40;4.20;;;2.70;;
22711;SDS011;11523;50.390;8.072;2022-10-18T14:40:05;9.55;;;2.47;;
22711;SDS011;11523;50.390;8.072;2022-10-18T14:42:31;3.42;;;2.53;;
22711;SDS011;11523;50.390;8.072;2022-10-18T14:44:57;4.05;;;2.30;;
22711;SDS011;11523;50.390;8.072;2022-10-18T14:47:26;7.10;;;2.60;;
22711;SDS011;11523;50.390;8.072;2022-10-18T14:49:53;2.42;;;2.22;;
22711;SDS011;11523;50.390;8.072;2022-10-18T14:52:31;2.78;;;2.50;;
22711;SDS011;11523;50.390;8.072;2022-10-18T14:54:58;3.30;;;2.80;;
22711;SDS011;11523;50.390;8.072;2022-10-18T14:57:27;3.17;;;2.58;;
22711;SDS011;11523;50.390;8.072;2022-10-18T14:59:56;3.88;;;3.33;;
22711;SDS011;11523;50.390;8.072;2022-10-18T15:02:24;2.92;;;2.60;;
22711;SDS011;11523;50.390;8.072;2022-10-18T15:04:54;3.40;;;3.10;;
22711;SDS011;11523;50.390;8.072;2022-10-18T15:07:20;3.95;;;3.00;;
22711;SDS011;11523;50.390;8.072;2022-10-18T15:09:47;5.18;;;3.55;;
22711;SDS011;11523;50.390;8.072;2022-10-18T15:12:13;4.38;;;3.65;;
22711;SDS011;11523;50.390;8.072;2022-10-18T15:14:40;4.43;;;3.47;;
22711;SDS011;11523;50.390;8.072;2022-10-18T15:17:11;4.25;;;3.47;;
22711;SDS011;11523;50.390;8.072;2022-10-18T15:19:38;5.32;;;4.07;;
22711;SDS011;11523;50.390;8.072;2022-10-18T15:22:06;4.45;;;3.92;;
22711;SDS011;11523;50.390;8.072;2022-10-18T15:24:39;5.15;;;4.00;;
22711;SDS011;11523;50.390;8.072;2022-10-18T15:32:47;5.32;;;4.15;;
22711;SDS011;11523;50.390;8.072;2022-10-18T15:35:18;5.25;;;4.13;;
22711;SDS011;11523;50.390;8.072;2022-10-18T15:37:45;5.90;;;4.60;;
22711;SDS011;11523;50.390;8.072;2022-10-18T15:40:18;5.22;;;4.15;;
22711;SDS011;11523;50.390;8.072;2022-10-18T15:42:44;8.50;;;4.63;;
22711;SDS011;11523;50.390;8.072;2022-10-18T15:50:37;5.78;;;4.70;;
22711;SDS011;11523;50.390;8.072;2022-10-18T15:56:12;5.47;;;4.53;;
22711;SDS011;11523;50.390;8.072;2022-10-18T15:58:40;7.95;;;4.70;;
22711;SDS011;11523;50.390;8.072;2022-10-18T16:01:12;8.23;;;4.90;;
22711;SDS011;11523;50.390;8.072;2022-10-18T16:03:39;5.30;;;4.88;;
22711;SDS011;11523;50.390;8.072;2022-10-18T16:06:05;6.57;;;5.53;;
22711;SDS011;11523;50.390;8.072;2022-10-18T16:08:34;6.30;;;5.70;;
22711;SDS011;11523;50.390;8.072;2022-10-18T16:11:04;6.65;;;5.43;;
22711;SDS011;11523;50.390;8.072;2022-10-18T16:13:30;6.50;;;5.57;;
22711;SDS011;11523;50.390;8.072;2022-10-18T16:15:56;8.20;;;5.28;;
22711;SDS011;11523;50.390;8.072;2022-10-18T16:18:23;6.53;;;5.88;;
22711;SDS011;11523;50.390;8.072;2022-10-18T16:20:50;7.03;;;6.32;;
22711;SDS011;11523;50.390;8.072;2022-10-18T16:23:17;6.65;;;5.97;;
22711;SDS011;11523;50.390;8.072;2022-10-18T16:25:43;6.90;;;5.68;;
22711;SDS011;11523;50.390;8.072;2022-10-18T16:28:11;7.38;;;5.85;;
22711;SDS011;11523;50.390;8.072;2022-10-18T16:30:38;7.18;;;4.93;;
22711;SDS011;11523;50.390;8.072;2022-10-18T16:33:04;8.10;;;5.90;;
22711;SDS011;11523;50.390;8.072;2022-10-18T16:35:31;10.68;;;6.18;;
22711;SDS011;11523;50.390;8.072;2022-10-18T16:37:58;9.45;;;5.38;;
22711;SDS011;11523;50.390;8.072;2022-10-18T16:40:24;6.80;;;5.57;;
22711;SDS011;11523;50.390;8.072;2022-10-18T16:42:50;9.48;;;6.55;;
22711;SDS011;11523;50.390;8.072;2022-10-18T16:45:16;7.43;;;6.63;;
22711;SDS011;11523;50.390;8.072;2022-10-18T16:47:43;8.95;;;6.85;;
22711;SDS011;11523;50.390;8.072;2022-10-18T16:50:12;8.20;;;6.43;;
22711;SDS011;11523;50.390;8.072;2022-10-18T16:52:39;6.93;;;6.22;;
22711;SDS011;11523;50.390;8.072;2022-10-18T16:55:05;7.22;;;6.45;;
22711;SDS011;11523;50.390;8.072;2022-10-18T16:57:38;7.18;;;6.47;;
22711;SDS011;11523;50.390;8.072;2022-10-18T17:00:04;9.18;;;6.82;;
22711;SDS011;11523;50.390;8.072;2022-10-18T17:02:31;7.22;;;6.53;;
22711;SDS011;11523;50.390;8.072;2022-10-18T17:04:56;11.07;;;6.90;;
22711;SDS011;11523;50.390;8.072;2022-10-18T17:07:23;9.93;;;6.85;;
22711;SDS011;11523;50.390;8.072;2022-10-18T17:09:49;7.63;;;6.80;;
22711;SDS011;11523;50.390;8.072;2022-10-18T17:12:15;7.57;;;6.43;;
22711;SDS011;11523;50.390;8.072;2022-10-18T17:14:41;9.40;;;7.15;;
22711;SDS011;11523;50.390;8.072;2022-10-18T17:17:09;8.85;;;7.75;;
22711;SDS011;11523;50.390;8.072;2022-10-18T17:19:36;12.45;;;8.15;;
22711;SDS011;11523;50.390;8.072;2022-10-18T17:22:02;9.45;;;7.47;;
22711;SDS011;11523;50.390;8.072;2022-10-18T17:24:28;11.32;;;7.82;;
22711;SDS011;11523;50.390;8.072;2022-10-18T17:26:54;8.05;;;7.28;;
22711;SDS011;11523;50.390;8.072;2022-10-18T17:29:20;8.27;;;7.18;;
22711;SDS011;11523;50.390;8.072;2022-10-18T17:31:46;8.43;;;6.90;;
22711;SDS011;11523;50.390;8.072;2022-10-18T17:34:12;10.10;;;7.60;;
22711;SDS011;11523;50.390;8.072;2022-10-18T17:36:38;10.40;;;7.38;;
22711;SDS011;11523;50.390;8.072;2022-10-18T17:39:04;11.32;;;7.50;;
22711;SDS011;11523;50.390;8.072;2022-10-18T17:41:30;8.73;;;7.82;;
22711;SDS011;11523;50.390;8.072;2022-10-18T17:43:55;19.77;;;17.77;;
22711;SDS011;11523;50.390;8.072;2022-10-18T17:46:21;23.83;;;17.73;;
22711;SDS011;11523;50.390;8.072;2022-10-18T17:48:47;28.20;;;23.73;;
22711;SDS011;11523;50.390;8.072;2022-10-18T17:51:14;25.50;;;19.13;;
22711;SDS011;11523;50.390;8.072;2022-10-18T17:53:41;21.92;;;18.20;;
22711;SDS011;11523;50.390;8.072;2022-10-18T17:56:07;30.08;;;25.33;;
22711;SDS011;11523;50.390;8.072;2022-10-18T17:58:33;26.25;;;20.52;;
22711;SDS011;11523;50.390;8.072;2022-10-18T18:01:12;18.50;;;14.40;;
22711;SDS011;11523;50.390;8.072;2022-10-18T18:03:39;14.70;;;12.93;;
22711;SDS011;11523;50.390;8.072;2022-10-18T18:06:15;12.70;;;11.25;;
22711;SDS011;11523;50.390;8.072;2022-10-18T18:08:42;16.52;;;10.85;;
22711;SDS011;11523;50.390;8.072;2022-10-18T18:11:08;13.60;;;10.93;;
22711;SDS011;11523;50.390;8.072;2022-10-18T18:13:34;11.93;;;10.20;;
22711;SDS011;11523;50.390;8.072;2022-10-18T18:16:13;14.10;;;10.00;;
22711;SDS011;11523;50.390;8.072;2022-10-18T18:18:47;10.57;;;9.48;;
22711;SDS011;11523;50.390;8.072;2022-10-18T18:21:14;10.07;;;9.05;;
22711;SDS011;11523;50.390;8.072;2022-10-18T18:23:40;11.43;;;8.82;;
22711;SDS011;11523;50.390;8.072;2022-10-18T18:26:06;11.75;;;8.98;;
22711;SDS011;11523;50.390;8.072;2022-10-18T18:28:33;14.00;;;9.30;;
22711;SDS011;11523;50.390;8.072;2022-10-18T18:31:03;13.75;;;9.60;;
22711;SDS011;11523;50.390;8.072;2022-10-18T18:33:31;11.65;;;9.35;;
22711;SDS011;11523;50.390;8.072;2022-10-18T18:35:57;12.02;;;9.45;;
22711;SDS011;11523;50.390;8.072;2022-10-18T18:38:23;10.73;;;9.07;;
22711;SDS011;11523;50.390;8.072;2022-10-18T18:40:49;12.93;;;10.23;;
22711;SDS011;11523;50.390;8.072;2022-10-18T18:43:15;12.30;;;10.10;;
22711;SDS011;11523;50.390;8.072;2022-10-18T18:45:48;11.68;;;10.15;;
22711;SDS011;11523;50.390;8.072;2022-10-18T18:48:14;15.90;;;11.15;;
22711;SDS011;11523;50.390;8.072;2022-10-18T18:50:40;12.68;;;10.48;;
22711;SDS011;11523;50.390;8.072;2022-10-18T18:53:13;11.27;;;9.95;;
22711;SDS011;11523;50.390;8.072;2022-10-18T18:55:39;16.15;;;11.05;;
22711;SDS011;11523;50.390;8.072;2022-10-18T18:58:06;16.70;;;10.45;;
22711;SDS011;11523;50.390;8.072;2022-10-18T19:00:32;15.07;;;10.27;;
22711;SDS011;11523;50.390;8.072;2022-10-18T19:02:58;12.07;;;10.07;;
22711;SDS011;11523;50.390;8.072;2022-10-18T19:05:24;13.35;;;10.23;;
22711;SDS011;11523;50.390;8.072;2022-10-18T19:07:52;11.20;;;9.55;;
22711;SDS011;11523;50.390;8.072;2022-10-18T19:10:18;16.15;;;10.73;;
22711;SDS011;11523;50.390;8.072;2022-10-18T19:12:44;11.98;;;10.25;;
22711;SDS011;11523;50.390;8.072;2022-10-18T19:15:09;16.95;;;9.85;;
22711;SDS011;11523;50.390;8.072;2022-10-18T19:17:36;12.02;;;10.73;;
22711;SDS011;11523;50.390;8.072;2022-10-18T19:20:02;15.32;;;10.65;;
22711;SDS011;11523;50.390;8.072;2022-10-18T19:22:30;15.05;;;11.60;;
22711;SDS011;11523;50.390;8.072;2022-10-18T19:24:55;17.20;;;11.40;;
22711;SDS011;11523;50.390;8.072;2022-10-18T19:27:21;15.40;;;12.10;;
22711;SDS011;11523;50.390;8.072;2022-10-18T19:29:47;11.93;;;10.73;;
22711;SDS011;11523;50.390;8.072;2022-10-18T19:32:14;17.52;;;13.32;;
22711;SDS011;11523;50.390;8.072;2022-10-18T19:34:42;23.23;;;13.90;;
22711;SDS011;11523;50.390;8.072;2022-10-18T19:37:09;24.42;;;13.38;;
22711;SDS011;11523;50.390;8.072;2022-10-18T19:39:36;17.25;;;13.60;;
22711;SDS011;11523;50.390;8.072;2022-10-18T19:42:06;17.83;;;13.70;;
22711;SDS011;11523;50.390;8.072;2022-10-18T19:44:33;17.83;;;12.50;;
22711;SDS011;11523;50.390;8.072;2022-10-18T19:47:00;19.80;;;12.85;;
22711;SDS011;11523;50.390;8.072;2022-10-18T19:49:26;16.90;;;12.30;;
22711;SDS011;11523;50.390;8.072;2022-10-18T19:51:52;17.33;;;12.38;;
22711;SDS011;11523;50.390;8.072;2022-10-18T19:54:18;16.02;;;12.10;;
22711;SDS011;11523;50.390;8.072;2022-10-18T19:56:44;18.83;;;12.98;;
22711;SDS011;11523;50.390;8.072;2022-10-18T19:59:13;17.85;;;11.85;;
22711;SDS011;11523;50.390;8.072;2022-10-18T20:01:47;18.48;;;12.63;;
22711;SDS011;11523;50.390;8.072;2022-10-18T20:04:13;13.45;;;12.05;;
22711;SDS011;11523;50.390;8.072;2022-10-18T20:06:39;19.83;;;13.13;;
22711;SDS011;11523;50.390;8.072;2022-10-18T20:09:07;19.85;;;13.23;;
22711;SDS011;11523;50.390;8.072;2022-10-18T20:11:33;21.65;;;13.70;;
22711;SDS011;11523;50.390;8.072;2022-10-18T20:13:59;16.95;;;13.75;;
22711;SDS011;11523;50.390;8.072;2022-10-18T20:16:26;16.33;;;12.45;;
22711;SDS011;11523;50.390;8.072;2022-10-18T20:18:59;17.27;;;13.23;;
22711;SDS011;11523;50.390;8.072;2022-10-18T20:21:26;22.98;;;13.07;;
22711;SDS011;11523;50.390;8.072;2022-10-18T20:23:52;20.05;;;13.55;;
22711;SDS011;11523;50.390;8.072;2022-10-18T20:26:19;15.20;;;12.48;;
22711;SDS011;11523;50.390;8.072;2022-10-18T20:28:46;15.48;;;12.38;;
22711;SDS011;11523;50.390;8.072;2022-10-18T20:31:16;17.95;;;12.77;;
22711;SDS011;11523;50.390;8.072;2022-10-18T20:33:46;19.98;;;12.75;;
22711;SDS011;11523;50.390;8.072;2022-10-18T20:36:13;18.90;;;13.50;;
22711;SDS011;11523;50.390;8.072;2022-10-18T20:38:40;21.33;;;12.80;;
22711;SDS011;11523;50.390;8.072;2022-10-18T20:41:14;16.90;;;12.30;;
22711;SDS011;11523;50.390;8.072;2022-10-18T20:43:40;18.57;;;12.83;;
22711;SDS011;11523;50.390;8.072;2022-10-18T20:46:07;18.40;;;12.95;;